sensor_id;sensor_type;location;lat;lon;timestamp;P1;durP1;ratioP1;P2;durP2;ratioP2
59310;SDS011;45078;51.654;21.250;2024-02-16T00:00:18;15.98;;;7.63;;
59310;SDS011;45078;51.654;21.250;2024-02-16T00:02:44;17.05;;;7.70;;
59310;SDS011;45078;51.654;21.250;2024-02-16T00:05:11;14.75;;;6.90;;
59310;SDS011;45078;51.654;21.250;2024-02-16T00:07:39;12.35;;;6.82;;
59310;SDS011;45078;51.654;21.250;2024-02-16T00:10:06;17.90;;;7.85;;
59310;SDS011;45078;51.654;21.250;2024-02-16T00:12:32;13.85;;;5.93;;
59310;SDS011;45078;51.654;21.250;2024-02-16T00:14:59;14.43;;;6.13;;
59310;SDS011;45078;51.654;21.250;2024-02-16T00:17:25;16.63;;;6.82;;
59310;SDS011;45078;51.654;21.250;2024-02-16T00:19:57;15.65;;;7.45;;
59310;SDS011;45078;51.654;21.250;2024-02-16T00:22:23;11.57;;;5.63;;
59310;SDS011;45078;51.654;21.250;2024-02-16T00:24:49;13.55;;;6.55;;
59310;SDS011;45078;51.654;21.250;2024-02-16T00:27:15;13.07;;;6.72;;
59310;SDS011;45078;51.654;21.250;2024-02-16T00:29:41;17.48;;;6.55;;
59310;SDS011;45078;51.654;21.250;2024-02-16T00:32:07;14.68;;;6.95;;
59310;SDS011;45078;51.654;21.250;2024-02-16T00:34:34;17.52;;;7.40;;
59310;SDS011;45078;51.654;21.250;2024-02-16T00:37:00;13.95;;;6.53;;
59310;SDS011;45078;51.654;21.250;2024-02-16T00:39:26;13.18;;;6.82;;
59310;SDS011;45078;51.654;21.250;2024-02-16T00:41:52;11.30;;;6.10;;
59310;SDS011;45078;51.654;21.250;2024-02-16T00:44:17;15.20;;;6.70;;
59310;SDS011;45078;51.654;21.250;2024-02-16T00:46:44;13.88;;;6.68;;
59310;SDS011;45078;51.654;21.250;2024-02-16T00:49:10;15.63;;;6.50;;
59310;SDS011;45078;51.654;21.250;2024-02-16T00:51:36;14.32;;;6.47;;
59310;SDS011;45078;51.654;21.250;2024-02-16T00:54:02;13.95;;;6.28;;
59310;SDS011;45078;51.654;21.250;2024-02-16T00:56:28;15.25;;;6.68;;
59310;SDS011;45078;51.654;21.250;2024-02-16T00:58:54;13.82;;;6.60;;
59310;SDS011;45078;51.654;21.250;2024-02-16T01:01:20;13.70;;;6.57;;
59310;SDS011;45078;51.654;21.250;2024-02-16T01:03:47;19.52;;;7.00;;
59310;SDS011;45078;51.654;21.250;2024-02-16T01:06:13;13.77;;;6.80;;
59310;SDS011;45078;51.654;21.250;2024-02-16T01:08:40;12.63;;;6.82;;
59310;SDS011;45078;51.654;21.250;2024-02-16T01:11:06;16.15;;;6.95;;
59310;SDS011;45078;51.654;21.250;2024-02-16T01:13:32;16.10;;;7.38;;
59310;SDS011;45078;51.654;21.250;2024-02-16T01:15:58;12.90;;;6.22;;
59310;SDS011;45078;51.654;21.250;2024-02-16T01:18:24;11.93;;;5.97;;
59310;SDS011;45078;51.654;21.250;2024-02-16T01:20:51;14.02;;;6.43;;
59310;SDS011;45078;51.654;21.250;2024-02-16T01:23:17;13.57;;;6.20;;
59310;SDS011;45078;51.654;21.250;2024-02-16T01:25:42;15.48;;;6.30;;
59310;SDS011;45078;51.654;21.250;2024-02-16T01:28:08;15.75;;;6.10;;
59310;SDS011;45078;51.654;21.250;2024-02-16T01:30:34;12.43;;;6.20;;
59310;SDS011;45078;51.654;21.250;2024-02-16T01:32:59;14.25;;;6.30;;
59310;SDS011;45078;51.654;21.250;2024-02-16T01:35:25;14.45;;;6.18;;
59310;SDS011;45078;51.654;21.250;2024-02-16T01:37:51;15.07;;;7.35;;
59310;SDS011;45078;51.654;21.250;2024-02-16T01:40:16;14.05;;;6.70;;
59310;SDS011;45078;51.654;21.250;2024-02-16T01:42:48;14.68;;;6.80;;
59310;SDS011;45078;51.654;21.250;2024-02-16T01:45:14;13.98;;;7.20;;
59310;SDS011;45078;51.654;21.250;2024-02-16T01:47:41;13.65;;;6.80;;
59310;SDS011;45078;51.654;21.250;2024-02-16T01:50:09;15.23;;;7.78;;
59310;SDS011;45078;51.654;21.250;2024-02-16T01:52:35;15.95;;;6.70;;
59310;SDS011;45078;51.654;21.250;2024-02-16T01:55:03;15.75;;;6.63;;
59310;SDS011;45078;51.654;21.250;2024-02-16T01:57:35;14.65;;;6.57;;
59310;SDS011;45078;51.654;21.250;2024-02-16T02:00:01;18.33;;;7.45;;
59310;SDS011;45078;51.654;21.250;2024-02-16T02:02:28;14.02;;;6.40;;
59310;SDS011;45078;51.654;21.250;2024-02-16T02:04:54;14.38;;;6.75;;
59310;SDS011;45078;51.654;21.250;2024-02-16T02:07:24;14.52;;;7.45;;
59310;SDS011;45078;51.654;21.250;2024-02-16T02:09:54;12.38;;;6.43;;
59310;SDS011;45078;51.654;21.250;2024-02-16T02:12:19;17.80;;;7.30;;
59310;SDS011;45078;51.654;21.250;2024-02-16T02:14:45;17.35;;;7.20;;
59310;SDS011;45078;51.654;21.250;2024-02-16T02:17:12;14.30;;;7.07;;
59310;SDS011;45078;51.654;21.250;2024-02-16T02:19:37;16.42;;;7.43;;
59310;SDS011;45078;51.654;21.250;2024-02-16T02:22:03;14.68;;;7.20;;
59310;SDS011;45078;51.654;21.250;2024-02-16T02:24:29;12.50;;;6.32;;
59310;SDS011;45078;51.654;21.250;2024-02-16T02:26:55;14.65;;;7.63;;
59310;SDS011;45078;51.654;21.250;2024-02-16T02:29:22;14.23;;;7.07;;
59310;SDS011;45078;51.654;21.250;2024-02-16T02:31:48;17.00;;;7.90;;
59310;SDS011;45078;51.654;21.250;2024-02-16T02:34:14;16.88;;;7.10;;
59310;SDS011;45078;51.654;21.250;2024-02-16T02:36:40;18.33;;;7.75;;
59310;SDS011;45078;51.654;21.250;2024-02-16T02:39:06;14.88;;;7.63;;
59310;SDS011;45078;51.654;21.250;2024-02-16T02:41:32;15.15;;;7.13;;
59310;SDS011;45078;51.654;21.250;2024-02-16T02:43:57;16.63;;;7.55;;
59310;SDS011;45078;51.654;21.250;2024-02-16T02:46:23;19.40;;;8.20;;
59310;SDS011;45078;51.654;21.250;2024-02-16T02:48:52;16.67;;;6.63;;
59310;SDS011;45078;51.654;21.250;2024-02-16T02:51:18;19.42;;;7.70;;
59310;SDS011;45078;51.654;21.250;2024-02-16T02:53:44;17.50;;;8.75;;
59310;SDS011;45078;51.654;21.250;2024-02-16T02:56:09;16.05;;;7.03;;
59310;SDS011;45078;51.654;21.250;2024-02-16T02:58:35;22.40;;;7.47;;
59310;SDS011;45078;51.654;21.250;2024-02-16T03:01:01;18.30;;;7.72;;
59310;SDS011;45078;51.654;21.250;2024-02-16T03:03:26;15.70;;;8.07;;
59310;SDS011;45078;51.654;21.250;2024-02-16T03:05:52;17.08;;;7.28;;
59310;SDS011;45078;51.654;21.250;2024-02-16T03:08:17;16.40;;;8.15;;
59310;SDS011;45078;51.654;21.250;2024-02-16T03:10:43;13.40;;;7.38;;
59310;SDS011;45078;51.654;21.250;2024-02-16T03:13:09;19.77;;;7.68;;
59310;SDS011;45078;51.654;21.250;2024-02-16T03:15:37;16.05;;;7.25;;
59310;SDS011;45078;51.654;21.250;2024-02-16T03:18:04;15.38;;;7.00;;
59310;SDS011;45078;51.654;21.250;2024-02-16T03:20:33;20.73;;;7.70;;
59310;SDS011;45078;51.654;21.250;2024-02-16T03:22:59;15.88;;;7.78;;
59310;SDS011;45078;51.654;21.250;2024-02-16T03:25:25;17.40;;;7.07;;
59310;SDS011;45078;51.654;21.250;2024-02-16T03:27:51;15.73;;;8.23;;
59310;SDS011;45078;51.654;21.250;2024-02-16T03:30:18;17.83;;;7.28;;
59310;SDS011;45078;51.654;21.250;2024-02-16T03:32:47;19.55;;;7.70;;
59310;SDS011;45078;51.654;21.250;2024-02-16T03:35:17;17.45;;;7.68;;
59310;SDS011;45078;51.654;21.250;2024-02-16T03:37:43;20.38;;;8.65;;
59310;SDS011;45078;51.654;21.250;2024-02-16T03:40:10;19.85;;;8.00;;
59310;SDS011;45078;51.654;21.250;2024-02-16T03:42:37;18.35;;;7.78;;
59310;SDS011;45078;51.654;21.250;2024-02-16T03:45:04;21.05;;;8.52;;
59310;SDS011;45078;51.654;21.250;2024-02-16T03:47:30;19.98;;;8.43;;
59310;SDS011;45078;51.654;21.250;2024-02-16T03:49:55;15.35;;;7.85;;
59310;SDS011;45078;51.654;21.250;2024-02-16T03:52:21;20.45;;;9.43;;
59310;SDS011;45078;51.654;21.250;2024-02-16T03:54:46;12.55;;;6.22;;
59310;SDS011;45078;51.654;21.250;2024-02-16T03:57:13;19.23;;;8.18;;
59310;SDS011;45078;51.654;21.250;2024-02-16T03:59:41;15.82;;;7.68;;
59310;SDS011;45078;51.654;21.250;2024-02-16T04:02:11;16.05;;;8.50;;
59310;SDS011;45078;51.654;21.250;2024-02-16T04:04:40;16.83;;;8.02;;
59310;SDS011;45078;51.654;21.250;2024-02-16T04:07:06;20.77;;;8.02;;
59310;SDS011;45078;51.654;21.250;2024-02-16T04:09:34;16.83;;;7.82;;
59310;SDS011;45078;51.654;21.250;2024-02-16T04:12:00;19.63;;;7.78;;
59310;SDS011;45078;51.654;21.250;2024-02-16T04:14:26;17.23;;;7.65;;
59310;SDS011;45078;51.654;21.250;2024-02-16T04:16:52;17.67;;;7.10;;
59310;SDS011;45078;51.654;21.250;2024-02-16T04:19:18;14.13;;;7.18;;
59310;SDS011;45078;51.654;21.250;2024-02-16T04:21:44;16.67;;;7.35;;
59310;SDS011;45078;51.654;21.250;2024-02-16T04:24:09;16.85;;;7.97;;
59310;SDS011;45078;51.654;21.250;2024-02-16T04:26:35;18.65;;;7.70;;
59310;SDS011;45078;51.654;21.250;2024-02-16T04:29:00;22.20;;;7.80;;
59310;SDS011;45078;51.654;21.250;2024-02-16T04:31:29;17.75;;;7.63;;
59310;SDS011;45078;51.654;21.250;2024-02-16T04:33:55;17.55;;;8.15;;
59310;SDS011;45078;51.654;21.250;2024-02-16T04:36:20;25.00;;;8.77;;
59310;SDS011;45078;51.654;21.250;2024-02-16T04:38:46;18.50;;;8.20;;
59310;SDS011;45078;51.654;21.250;2024-02-16T04:41:12;17.73;;;7.93;;
59310;SDS011;45078;51.654;21.250;2024-02-16T04:43:38;17.00;;;7.82;;
59310;SDS011;45078;51.654;21.250;2024-02-16T04:46:04;17.58;;;8.10;;
59310;SDS011;45078;51.654;21.250;2024-02-16T04:48:30;19.23;;;8.18;;
59310;SDS011;45078;51.654;21.250;2024-02-16T04:50:57;20.85;;;8.60;;
59310;SDS011;45078;51.654;21.250;2024-02-16T04:53:23;20.98;;;8.65;;
59310;SDS011;45078;51.654;21.250;2024-02-16T04:55:48;19.48;;;7.82;;
59310;SDS011;45078;51.654;21.250;2024-02-16T04:58:14;17.00;;;8.10;;
59310;SDS011;45078;51.654;21.250;2024-02-16T05:00:39;21.50;;;8.15;;
59310;SDS011;45078;51.654;21.250;2024-02-16T05:03:05;18.75;;;8.85;;
59310;SDS011;45078;51.654;21.250;2024-02-16T05:05:31;15.45;;;8.25;;
59310;SDS011;45078;51.654;21.250;2024-02-16T05:07:57;19.95;;;8.50;;
59310;SDS011;45078;51.654;21.250;2024-02-16T05:10:22;16.70;;;8.07;;
59310;SDS011;45078;51.654;21.250;2024-02-16T05:12:48;17.88;;;7.75;;
59310;SDS011;45078;51.654;21.250;2024-02-16T05:15:14;14.23;;;7.53;;
59310;SDS011;45078;51.654;21.250;2024-02-16T05:17:40;18.85;;;8.00;;
59310;SDS011;45078;51.654;21.250;2024-02-16T05:20:10;17.42;;;7.90;;
59310;SDS011;45078;51.654;21.250;2024-02-16T05:22:40;19.67;;;8.23;;
59310;SDS011;45078;51.654;21.250;2024-02-16T05:25:11;18.48;;;9.23;;
59310;SDS011;45078;51.654;21.250;2024-02-16T05:27:37;19.85;;;7.40;;
59310;SDS011;45078;51.654;21.250;2024-02-16T05:30:03;16.45;;;7.95;;
59310;SDS011;45078;51.654;21.250;2024-02-16T05:32:32;17.75;;;8.27;;
59310;SDS011;45078;51.654;21.250;2024-02-16T05:35:04;21.77;;;8.43;;
59310;SDS011;45078;51.654;21.250;2024-02-16T05:37:38;21.67;;;9.05;;
59310;SDS011;45078;51.654;21.250;2024-02-16T05:40:06;15.20;;;8.20;;
59310;SDS011;45078;51.654;21.250;2024-02-16T05:42:43;17.75;;;7.60;;
59310;SDS011;45078;51.654;21.250;2024-02-16T05:45:10;19.50;;;8.65;;
59310;SDS011;45078;51.654;21.250;2024-02-16T05:47:36;20.95;;;8.82;;
59310;SDS011;45078;51.654;21.250;2024-02-16T05:50:03;15.60;;;7.80;;
59310;SDS011;45078;51.654;21.250;2024-02-16T05:52:30;24.85;;;8.82;;
59310;SDS011;45078;51.654;21.250;2024-02-16T05:54:55;22.00;;;9.35;;
59310;SDS011;45078;51.654;21.250;2024-02-16T05:57:21;21.58;;;9.68;;
59310;SDS011;45078;51.654;21.250;2024-02-16T05:59:48;18.52;;;8.20;;
59310;SDS011;45078;51.654;21.250;2024-02-16T06:02:14;19.27;;;8.32;;
59310;SDS011;45078;51.654;21.250;2024-02-16T06:04:40;18.88;;;8.95;;
59310;SDS011;45078;51.654;21.250;2024-02-16T06:07:06;21.45;;;8.63;;
59310;SDS011;45078;51.654;21.250;2024-02-16T06:09:33;22.52;;;9.15;;
59310;SDS011;45078;51.654;21.250;2024-02-16T06:12:03;21.73;;;8.60;;
59310;SDS011;45078;51.654;21.250;2024-02-16T06:14:30;19.83;;;9.73;;
59310;SDS011;45078;51.654;21.250;2024-02-16T06:16:56;16.17;;;7.28;;
59310;SDS011;45078;51.654;21.250;2024-02-16T06:19:22;21.55;;;9.00;;
59310;SDS011;45078;51.654;21.250;2024-02-16T06:21:47;17.48;;;7.90;;
59310;SDS011;45078;51.654;21.250;2024-02-16T06:24:13;20.67;;;9.43;;
59310;SDS011;45078;51.654;21.250;2024-02-16T06:26:39;19.60;;;8.02;;
59310;SDS011;45078;51.654;21.250;2024-02-16T06:29:04;24.10;;;9.30;;
59310;SDS011;45078;51.654;21.250;2024-02-16T06:31:30;19.13;;;8.63;;
59310;SDS011;45078;51.654;21.250;2024-02-16T06:33:55;22.58;;;9.85;;
59310;SDS011;45078;51.654;21.250;2024-02-16T06:36:22;19.55;;;9.43;;
59310;SDS011;45078;51.654;21.250;2024-02-16T06:38:48;18.08;;;8.68;;
59310;SDS011;45078;51.654;21.250;2024-02-16T06:41:13;22.38;;;10.25;;
59310;SDS011;45078;51.654;21.250;2024-02-16T06:43:39;17.75;;;9.35;;
59310;SDS011;45078;51.654;21.250;2024-02-16T06:46:05;25.65;;;10.32;;
59310;SDS011;45078;51.654;21.250;2024-02-16T06:48:31;25.98;;;10.73;;
59310;SDS011;45078;51.654;21.250;2024-02-16T06:50:56;19.13;;;9.27;;
59310;SDS011;45078;51.654;21.250;2024-02-16T06:53:22;13.45;;;8.02;;
59310;SDS011;45078;51.654;21.250;2024-02-16T06:55:47;17.13;;;7.30;;
59310;SDS011;45078;51.654;21.250;2024-02-16T06:58:13;21.05;;;10.15;;
59310;SDS011;45078;51.654;21.250;2024-02-16T07:00:39;17.08;;;9.07;;
59310;SDS011;45078;51.654;21.250;2024-02-16T07:03:07;20.83;;;9.15;;
59310;SDS011;45078;51.654;21.250;2024-02-16T07:05:33;21.98;;;9.40;;
59310;SDS011;45078;51.654;21.250;2024-02-16T07:07:59;18.95;;;9.00;;
59310;SDS011;45078;51.654;21.250;2024-02-16T07:10:25;18.85;;;9.40;;
59310;SDS011;45078;51.654;21.250;2024-02-16T07:12:50;22.27;;;10.57;;
59310;SDS011;45078;51.654;21.250;2024-02-16T07:15:16;23.38;;;10.77;;
59310;SDS011;45078;51.654;21.250;2024-02-16T07:17:42;20.70;;;9.77;;
59310;SDS011;45078;51.654;21.250;2024-02-16T07:20:07;22.58;;;13.43;;
59310;SDS011;45078;51.654;21.250;2024-02-16T07:22:33;15.25;;;7.50;;
59310;SDS011;45078;51.654;21.250;2024-02-16T07:24:59;18.17;;;8.25;;
59310;SDS011;45078;51.654;21.250;2024-02-16T07:27:30;20.05;;;9.50;;
59310;SDS011;45078;51.654;21.250;2024-02-16T07:29:55;20.38;;;8.52;;
59310;SDS011;45078;51.654;21.250;2024-02-16T07:32:21;21.63;;;9.77;;
59310;SDS011;45078;51.654;21.250;2024-02-16T07:34:47;17.98;;;10.10;;
59310;SDS011;45078;51.654;21.250;2024-02-16T07:37:13;19.30;;;9.65;;
59310;SDS011;45078;51.654;21.250;2024-02-16T07:39:40;17.70;;;8.55;;
59310;SDS011;45078;51.654;21.250;2024-02-16T07:42:06;19.58;;;9.75;;
59310;SDS011;45078;51.654;21.250;2024-02-16T07:44:34;22.00;;;10.38;;
59310;SDS011;45078;51.654;21.250;2024-02-16T07:47:03;25.05;;;9.80;;
59310;SDS011;45078;51.654;21.250;2024-02-16T07:49:29;16.88;;;7.45;;
59310;SDS011;45078;51.654;21.250;2024-02-16T07:51:55;21.80;;;9.32;;
59310;SDS011;45078;51.654;21.250;2024-02-16T07:54:21;21.92;;;9.35;;
59310;SDS011;45078;51.654;21.250;2024-02-16T07:56:46;25.33;;;10.60;;
59310;SDS011;45078;51.654;21.250;2024-02-16T07:59:12;17.85;;;8.63;;
59310;SDS011;45078;51.654;21.250;2024-02-16T08:01:38;21.55;;;8.93;;
59310;SDS011;45078;51.654;21.250;2024-02-16T08:04:04;23.80;;;10.10;;
59310;SDS011;45078;51.654;21.250;2024-02-16T08:06:29;21.95;;;9.98;;
59310;SDS011;45078;51.654;21.250;2024-02-16T08:08:55;19.08;;;10.32;;
59310;SDS011;45078;51.654;21.250;2024-02-16T08:11:21;21.02;;;9.55;;
59310;SDS011;45078;51.654;21.250;2024-02-16T08:13:47;15.68;;;8.25;;
59310;SDS011;45078;51.654;21.250;2024-02-16T08:16:13;20.65;;;9.75;;
59310;SDS011;45078;51.654;21.250;2024-02-16T08:18:38;22.05;;;10.20;;
59310;SDS011;45078;51.654;21.250;2024-02-16T08:21:04;21.13;;;8.93;;
59310;SDS011;45078;51.654;21.250;2024-02-16T08:23:30;22.45;;;8.93;;
59310;SDS011;45078;51.654;21.250;2024-02-16T08:25:56;19.63;;;9.68;;
59310;SDS011;45078;51.654;21.250;2024-02-16T08:28:22;22.25;;;8.93;;
59310;SDS011;45078;51.654;21.250;2024-02-16T08:30:48;22.00;;;10.25;;
59310;SDS011;45078;51.654;21.250;2024-02-16T08:33:14;17.83;;;8.65;;
59310;SDS011;45078;51.654;21.250;2024-02-16T08:35:39;24.48;;;10.25;;
59310;SDS011;45078;51.654;21.250;2024-02-16T08:38:05;21.27;;;9.85;;
59310;SDS011;45078;51.654;21.250;2024-02-16T08:40:35;16.27;;;7.25;;
59310;SDS011;45078;51.654;21.250;2024-02-16T08:43:01;17.33;;;9.07;;
59310;SDS011;45078;51.654;21.250;2024-02-16T08:45:28;17.90;;;9.23;;
59310;SDS011;45078;51.654;21.250;2024-02-16T08:47:53;20.88;;;8.77;;
59310;SDS011;45078;51.654;21.250;2024-02-16T08:50:19;24.80;;;9.48;;
59310;SDS011;45078;51.654;21.250;2024-02-16T08:52:45;14.80;;;8.18;;
59310;SDS011;45078;51.654;21.250;2024-02-16T08:55:10;19.17;;;9.32;;
59310;SDS011;45078;51.654;21.250;2024-02-16T08:57:36;17.27;;;8.30;;
59310;SDS011;45078;51.654;21.250;2024-02-16T09:00:02;21.33;;;10.55;;
59310;SDS011;45078;51.654;21.250;2024-02-16T09:02:28;19.38;;;8.95;;
59310;SDS011;45078;51.654;21.250;2024-02-16T09:04:54;23.33;;;10.00;;
59310;SDS011;45078;51.654;21.250;2024-02-16T09:07:19;14.25;;;6.55;;
59310;SDS011;45078;51.654;21.250;2024-02-16T09:09:45;20.17;;;10.10;;
59310;SDS011;45078;51.654;21.250;2024-02-16T09:12:11;21.25;;;9.15;;
59310;SDS011;45078;51.654;21.250;2024-02-16T09:14:37;21.38;;;9.95;;
59310;SDS011;45078;51.654;21.250;2024-02-16T09:17:03;18.13;;;9.30;;
59310;SDS011;45078;51.654;21.250;2024-02-16T09:19:29;21.27;;;9.15;;
59310;SDS011;45078;51.654;21.250;2024-02-16T09:21:54;18.67;;;8.95;;
59310;SDS011;45078;51.654;21.250;2024-02-16T09:24:20;23.90;;;9.55;;
59310;SDS011;45078;51.654;21.250;2024-02-16T09:26:46;21.08;;;10.20;;
59310;SDS011;45078;51.654;21.250;2024-02-16T09:29:14;23.05;;;10.23;;
59310;SDS011;45078;51.654;21.250;2024-02-16T09:31:43;15.75;;;8.48;;
59310;SDS011;45078;51.654;21.250;2024-02-16T09:34:08;20.83;;;9.45;;
59310;SDS011;45078;51.654;21.250;2024-02-16T09:36:34;18.42;;;9.55;;
59310;SDS011;45078;51.654;21.250;2024-02-16T09:39:02;16.92;;;9.80;;
59310;SDS011;45078;51.654;21.250;2024-02-16T09:41:28;21.08;;;9.60;;
59310;SDS011;45078;51.654;21.250;2024-02-16T09:43:53;19.27;;;10.38;;
59310;SDS011;45078;51.654;21.250;2024-02-16T09:46:20;17.08;;;8.68;;
59310;SDS011;45078;51.654;21.250;2024-02-16T09:48:53;20.05;;;8.73;;
59310;SDS011;45078;51.654;21.250;2024-02-16T09:51:20;17.38;;;8.50;;
59310;SDS011;45078;51.654;21.250;2024-02-16T09:53:49;17.20;;;9.52;;
59310;SDS011;45078;51.654;21.250;2024-02-16T09:56:20;16.90;;;8.57;;
59310;SDS011;45078;51.654;21.250;2024-02-16T09:58:46;20.10;;;8.95;;
59310;SDS011;45078;51.654;21.250;2024-02-16T10:01:17;15.15;;;7.68;;
59310;SDS011;45078;51.654;21.250;2024-02-16T10:03:47;20.42;;;9.38;;
59310;SDS011;45078;51.654;21.250;2024-02-16T10:06:13;14.82;;;7.45;;
59310;SDS011;45078;51.654;21.250;2024-02-16T10:08:47;20.13;;;9.52;;
59310;SDS011;45078;51.654;21.250;2024-02-16T10:11:15;18.42;;;8.57;;
59310;SDS011;45078;51.654;21.250;2024-02-16T10:13:43;19.25;;;9.05;;
59310;SDS011;45078;51.654;21.250;2024-02-16T10:16:26;16.15;;;8.30;;
59310;SDS011;45078;51.654;21.250;2024-02-16T10:18:55;19.08;;;8.75;;
59310;SDS011;45078;51.654;21.250;2024-02-16T10:21:28;15.13;;;7.57;;
59310;SDS011;45078;51.654;21.250;2024-02-16T10:24:05;17.60;;;8.00;;
59310;SDS011;45078;51.654;21.250;2024-02-16T10:26:33;14.70;;;7.47;;
59310;SDS011;45078;51.654;21.250;2024-02-16T10:29:03;19.38;;;8.80;;
59310;SDS011;45078;51.654;21.250;2024-02-16T10:31:29;17.92;;;9.15;;
59310;SDS011;45078;51.654;21.250;2024-02-16T10:33:57;11.85;;;6.05;;
59310;SDS011;45078;51.654;21.250;2024-02-16T10:36:24;16.40;;;8.25;;
59310;SDS011;45078;51.654;21.250;2024-02-16T10:38:54;11.32;;;6.70;;
59310;SDS011;45078;51.654;21.250;2024-02-16T10:41:25;14.18;;;7.32;;
59310;SDS011;45078;51.654;21.250;2024-02-16T10:43:55;17.60;;;9.38;;
59310;SDS011;45078;51.654;21.250;2024-02-16T10:46:22;20.63;;;9.23;;
59310;SDS011;45078;51.654;21.250;2024-02-16T10:48:50;22.75;;;8.93;;
59310;SDS011;45078;51.654;21.250;2024-02-16T10:51:17;15.80;;;7.80;;
59310;SDS011;45078;51.654;21.250;2024-02-16T10:53:47;18.50;;;8.60;;
59310;SDS011;45078;51.654;21.250;2024-02-16T10:56:26;16.63;;;7.90;;
59310;SDS011;45078;51.654;21.250;2024-02-16T10:58:53;16.98;;;7.10;;
59310;SDS011;45078;51.654;21.250;2024-02-16T11:01:19;10.88;;;5.78;;
59310;SDS011;45078;51.654;21.250;2024-02-16T11:03:45;17.63;;;7.32;;
59310;SDS011;45078;51.654;21.250;2024-02-16T11:06:17;19.63;;;8.70;;
59310;SDS011;45078;51.654;21.250;2024-02-16T11:08:42;16.35;;;7.47;;
59310;SDS011;45078;51.654;21.250;2024-02-16T11:11:08;14.10;;;7.18;;
59310;SDS011;45078;51.654;21.250;2024-02-16T11:13:38;10.80;;;4.22;;
59310;SDS011;45078;51.654;21.250;2024-02-16T11:16:08;16.55;;;6.75;;
59310;SDS011;45078;51.654;21.250;2024-02-16T11:18:38;15.15;;;8.35;;
59310;SDS011;45078;51.654;21.250;2024-02-16T11:21:05;17.40;;;8.13;;
59310;SDS011;45078;51.654;21.250;2024-02-16T11:23:34;16.13;;;7.50;;
59310;SDS011;45078;51.654;21.250;2024-02-16T11:26:02;17.00;;;8.43;;
59310;SDS011;45078;51.654;21.250;2024-02-16T11:28:31;14.70;;;7.47;;
59310;SDS011;45078;51.654;21.250;2024-02-16T11:30:57;12.43;;;5.97;;
59310;SDS011;45078;51.654;21.250;2024-02-16T11:33:23;13.43;;;6.60;;
59310;SDS011;45078;51.654;21.250;2024-02-16T11:35:53;16.40;;;7.40;;
59310;SDS011;45078;51.654;21.250;2024-02-16T11:38:22;12.38;;;6.75;;
59310;SDS011;45078;51.654;21.250;2024-02-16T11:40:56;16.90;;;7.85;;
59310;SDS011;45078;51.654;21.250;2024-02-16T11:43:22;13.88;;;7.63;;
59310;SDS011;45078;51.654;21.250;2024-02-16T11:45:48;13.63;;;7.40;;
59310;SDS011;45078;51.654;21.250;2024-02-16T11:48:18;16.58;;;8.00;;
59310;SDS011;45078;51.654;21.250;2024-02-16T11:51:09;15.32;;;7.47;;
59310;SDS011;45078;51.654;21.250;2024-02-16T11:53:34;13.85;;;7.95;;
59310;SDS011;45078;51.654;21.250;2024-02-16T11:56:00;19.48;;;7.07;;
59310;SDS011;45078;51.654;21.250;2024-02-16T11:58:26;15.27;;;7.18;;
59310;SDS011;45078;51.654;21.250;2024-02-16T12:00:52;15.40;;;7.90;;
59310;SDS011;45078;51.654;21.250;2024-02-16T12:03:19;13.02;;;6.75;;
59310;SDS011;45078;51.654;21.250;2024-02-16T12:08:21;14.63;;;7.10;;
59310;SDS011;45078;51.654;21.250;2024-02-16T12:10:48;11.45;;;6.68;;
59310;SDS011;45078;51.654;21.250;2024-02-16T12:13:17;13.65;;;7.18;;
59310;SDS011;45078;51.654;21.250;2024-02-16T12:15:45;14.32;;;7.03;;
59310;SDS011;45078;51.654;21.250;2024-02-16T12:18:21;18.48;;;7.10;;
59310;SDS011;45078;51.654;21.250;2024-02-16T12:21:00;16.05;;;6.47;;
59310;SDS011;45078;51.654;21.250;2024-02-16T12:23:27;14.88;;;6.70;;
59310;SDS011;45078;51.654;21.250;2024-02-16T12:25:55;14.98;;;7.47;;
59310;SDS011;45078;51.654;21.250;2024-02-16T12:28:24;15.25;;;6.97;;
59310;SDS011;45078;51.654;21.250;2024-02-16T12:30:55;13.43;;;6.53;;
59310;SDS011;45078;51.654;21.250;2024-02-16T12:33:24;13.00;;;6.35;;
59310;SDS011;45078;51.654;21.250;2024-02-16T12:35:50;16.35;;;7.13;;
59310;SDS011;45078;51.654;21.250;2024-02-16T12:38:16;12.32;;;5.80;;
59310;SDS011;45078;51.654;21.250;2024-02-16T12:40:44;17.05;;;6.25;;
59310;SDS011;45078;51.654;21.250;2024-02-16T12:43:13;12.95;;;6.82;;
59310;SDS011;45078;51.654;21.250;2024-02-16T12:45:39;12.35;;;6.15;;
59310;SDS011;45078;51.654;21.250;2024-02-16T12:48:05;14.35;;;7.05;;
59310;SDS011;45078;51.654;21.250;2024-02-16T12:50:31;13.05;;;7.15;;
59310;SDS011;45078;51.654;21.250;2024-02-16T12:52:57;12.38;;;7.32;;
59310;SDS011;45078;51.654;21.250;2024-02-16T12:55:23;12.23;;;6.28;;
59310;SDS011;45078;51.654;21.250;2024-02-16T12:57:49;12.70;;;6.28;;
59310;SDS011;45078;51.654;21.250;2024-02-16T13:00:18;12.60;;;7.07;;
59310;SDS011;45078;51.654;21.250;2024-02-16T13:02:44;9.25;;;4.63;;
59310;SDS011;45078;51.654;21.250;2024-02-16T13:05:10;15.63;;;7.25;;
59310;SDS011;45078;51.654;21.250;2024-02-16T13:07:38;10.68;;;6.07;;
59310;SDS011;45078;51.654;21.250;2024-02-16T13:10:06;14.50;;;7.47;;
59310;SDS011;45078;51.654;21.250;2024-02-16T13:12:33;13.80;;;7.60;;
59310;SDS011;45078;51.654;21.250;2024-02-16T13:14:58;12.93;;;6.65;;
59310;SDS011;45078;51.654;21.250;2024-02-16T13:17:24;15.18;;;7.93;;
59310;SDS011;45078;51.654;21.250;2024-02-16T13:19:51;16.90;;;7.47;;
59310;SDS011;45078;51.654;21.250;2024-02-16T13:22:17;12.77;;;6.10;;
59310;SDS011;45078;51.654;21.250;2024-02-16T13:24:43;10.98;;;6.30;;
59310;SDS011;45078;51.654;21.250;2024-02-16T13:27:08;13.98;;;7.18;;
59310;SDS011;45078;51.654;21.250;2024-02-16T13:29:34;12.18;;;6.50;;
59310;SDS011;45078;51.654;21.250;2024-02-16T13:32:00;14.75;;;6.78;;
59310;SDS011;45078;51.654;21.250;2024-02-16T13:34:26;14.48;;;7.50;;
59310;SDS011;45078;51.654;21.250;2024-02-16T13:36:52;11.63;;;6.65;;
59310;SDS011;45078;51.654;21.250;2024-02-16T13:39:18;12.70;;;6.32;;
59310;SDS011;45078;51.654;21.250;2024-02-16T13:41:44;14.90;;;6.93;;
59310;SDS011;45078;51.654;21.250;2024-02-16T13:44:13;6.80;;;4.40;;
59310;SDS011;45078;51.654;21.250;2024-02-16T13:46:39;11.90;;;6.45;;
59310;SDS011;45078;51.654;21.250;2024-02-16T13:49:04;12.70;;;6.53;;
59310;SDS011;45078;51.654;21.250;2024-02-16T13:51:30;11.40;;;6.13;;
59310;SDS011;45078;51.654;21.250;2024-02-16T13:53:55;11.70;;;6.30;;
59310;SDS011;45078;51.654;21.250;2024-02-16T13:56:21;13.00;;;5.90;;
59310;SDS011;45078;51.654;21.250;2024-02-16T13:58:47;12.18;;;6.60;;
59310;SDS011;45078;51.654;21.250;2024-02-16T14:01:12;11.75;;;6.63;;
59310;SDS011;45078;51.654;21.250;2024-02-16T14:03:38;13.82;;;6.63;;
59310;SDS011;45078;51.654;21.250;2024-02-16T14:06:04;12.15;;;5.95;;
59310;SDS011;45078;51.654;21.250;2024-02-16T14:08:32;16.02;;;7.07;;
59310;SDS011;45078;51.654;21.250;2024-02-16T14:10:58;14.02;;;6.93;;
59310;SDS011;45078;51.654;21.250;2024-02-16T14:13:24;14.93;;;6.45;;
59310;SDS011;45078;51.654;21.250;2024-02-16T14:15:50;12.30;;;6.78;;
59310;SDS011;45078;51.654;21.250;2024-02-16T14:18:16;10.18;;;6.30;;
59310;SDS011;45078;51.654;21.250;2024-02-16T14:20:41;11.07;;;6.45;;